sensor_id;sensor_type;location;lat;lon;timestamp;P1;durP1;ratioP1;P2;durP2;ratioP2
71600;SDS011;59446;52.192;4.628;2022-10-31T00:00:57;2.00;;;1.10;;
71600;SDS011;59446;52.192;4.628;2022-10-31T00:03:23;0.93;;;0.60;;
71600;SDS011;59446;52.192;4.628;2022-10-31T00:05:49;2.37;;;0.70;;
71600;SDS011;59446;52.192;4.628;2022-10-31T00:08:15;1.60;;;0.70;;
71600;SDS011;59446;52.192;4.628;2022-10-31T00:10:42;1.47;;;0.80;;
71600;SDS011;59446;52.192;4.628;2022-10-31T00:13:09;1.40;;;0.80;;
71600;SDS011;59446;52.192;4.628;2022-10-31T00:15:36;2.00;;;0.70;;
71600;SDS011;59446;52.192;4.628;2022-10-31T00:18:02;3.00;;;0.90;;
71600;SDS011;59446;52.192;4.628;2022-10-31T00:20:29;1.10;;;0.80;;
71600;SDS011;59446;52.192;4.628;2022-10-31T00:22:58;1.08;;;0.70;;
71600;SDS011;59446;52.192;4.628;2022-10-31T00:25:25;1.77;;;0.90;;
71600;SDS011;59446;52.192;4.628;2022-10-31T00:27:51;1.15;;;0.70;;
71600;SDS011;59446;52.192;4.628;2022-10-31T00:30:16;2.67;;;0.83;;
71600;SDS011;59446;52.192;4.628;2022-10-31T00:32:41;2.77;;;0.90;;
71600;SDS011;59446;52.192;4.628;2022-10-31T00:35:07;1.80;;;0.80;;
71600;SDS011;59446;52.192;4.628;2022-10-31T00:37:32;1.48;;;0.70;;
71600;SDS011;59446;52.192;4.628;2022-10-31T00:39:58;1.97;;;0.80;;
71600;SDS011;59446;52.192;4.628;2022-10-31T00:42:23;1.17;;;0.73;;
71600;SDS011;59446;52.192;4.628;2022-10-31T00:44:49;1.63;;;0.80;;
71600;SDS011;59446;52.192;4.628;2022-10-31T00:47:14;2.00;;;0.70;;
71600;SDS011;59446;52.192;4.628;2022-10-31T00:49:40;1.10;;;0.70;;
71600;SDS011;59446;52.192;4.628;2022-10-31T00:52:05;1.40;;;0.70;;
71600;SDS011;59446;52.192;4.628;2022-10-31T00:54:30;2.37;;;0.80;;
71600;SDS011;59446;52.192;4.628;2022-10-31T00:56:56;1.17;;;0.60;;
71600;SDS011;59446;52.192;4.628;2022-10-31T00:59:22;2.03;;;0.90;;
71600;SDS011;59446;52.192;4.628;2022-10-31T01:01:47;1.43;;;0.77;;
71600;SDS011;59446;52.192;4.628;2022-10-31T01:04:13;1.30;;;0.80;;
71600;SDS011;59446;52.192;4.628;2022-10-31T01:06:38;1.90;;;0.90;;
71600;SDS011;59446;52.192;4.628;2022-10-31T01:09:04;1.10;;;0.80;;
71600;SDS011;59446;52.192;4.628;2022-10-31T01:11:29;0.87;;;0.60;;
71600;SDS011;59446;52.192;4.628;2022-10-31T01:13:54;1.27;;;0.60;;
71600;SDS011;59446;52.192;4.628;2022-10-31T01:16:22;1.57;;;0.93;;
71600;SDS011;59446;52.192;4.628;2022-10-31T01:18:49;0.80;;;0.70;;
71600;SDS011;59446;52.192;4.628;2022-10-31T01:21:16;1.38;;;0.60;;
71600;SDS011;59446;52.192;4.628;2022-10-31T01:23:46;2.05;;;0.80;;
71600;SDS011;59446;52.192;4.628;2022-10-31T01:26:13;3.00;;;0.70;;
71600;SDS011;59446;52.192;4.628;2022-10-31T01:28:45;2.25;;;0.93;;
71600;SDS011;59446;52.192;4.628;2022-10-31T01:31:17;1.35;;;0.80;;
71600;SDS011;59446;52.192;4.628;2022-10-31T01:33:43;1.33;;;1.00;;
71600;SDS011;59446;52.192;4.628;2022-10-31T01:38:38;1.80;;;0.80;;
71600;SDS011;59446;52.192;4.628;2022-10-31T01:41:04;1.75;;;0.75;;
71600;SDS011;59446;52.192;4.628;2022-10-31T01:43:51;1.40;;;0.80;;
71600;SDS011;59446;52.192;4.628;2022-10-31T01:49:00;1.70;;;0.60;;
71600;SDS011;59446;52.192;4.628;2022-10-31T01:51:30;2.10;;;0.80;;
71600;SDS011;59446;52.192;4.628;2022-10-31T01:54:02;1.25;;;0.60;;
71600;SDS011;59446;52.192;4.628;2022-10-31T01:56:31;1.87;;;0.80;;
71600;SDS011;59446;52.192;4.628;2022-10-31T01:58:58;1.30;;;0.73;;
71600;SDS011;59446;52.192;4.628;2022-10-31T02:01:27;2.00;;;0.85;;
71600;SDS011;59446;52.192;4.628;2022-10-31T02:03:53;2.40;;;0.83;;
71600;SDS011;59446;52.192;4.628;2022-10-31T02:06:37;1.48;;;0.75;;
71600;SDS011;59446;52.192;4.628;2022-10-31T02:09:06;1.23;;;0.73;;
71600;SDS011;59446;52.192;4.628;2022-10-31T02:11:32;1.07;;;0.60;;
71600;SDS011;59446;52.192;4.628;2022-10-31T02:14:00;1.30;;;0.60;;
71600;SDS011;59446;52.192;4.628;2022-10-31T02:16:26;1.55;;;0.75;;
71600;SDS011;59446;52.192;4.628;2022-10-31T02:18:52;0.80;;;0.50;;
71600;SDS011;59446;52.192;4.628;2022-10-31T02:24:28;1.73;;;0.70;;
71600;SDS011;59446;52.192;4.628;2022-10-31T02:32:42;2.17;;;0.80;;
71600;SDS011;59446;52.192;4.628;2022-10-31T02:41:00;2.53;;;0.70;;
71600;SDS011;59446;52.192;4.628;2022-10-31T02:43:54;1.50;;;0.73;;
71600;SDS011;59446;52.192;4.628;2022-10-31T02:46:23;1.02;;;0.60;;
71600;SDS011;59446;52.192;4.628;2022-10-31T02:48:56;1.63;;;0.90;;
71600;SDS011;59446;52.192;4.628;2022-10-31T02:51:27;1.55;;;0.52;;
71600;SDS011;59446;52.192;4.628;2022-10-31T02:53:53;1.07;;;0.57;;
71600;SDS011;59446;52.192;4.628;2022-10-31T02:56:18;0.70;;;0.60;;
71600;SDS011;59446;52.192;4.628;2022-10-31T02:58:49;1.13;;;0.65;;
71600;SDS011;59446;52.192;4.628;2022-10-31T03:06:49;0.80;;;0.60;;
71600;SDS011;59446;52.192;4.628;2022-10-31T03:12:13;0.77;;;0.55;;
71600;SDS011;59446;52.192;4.628;2022-10-31T03:14:51;0.73;;;0.60;;
71600;SDS011;59446;52.192;4.628;2022-10-31T03:17:26;1.90;;;0.70;;
71600;SDS011;59446;52.192;4.628;2022-10-31T03:19:58;0.80;;;0.60;;
71600;SDS011;59446;52.192;4.628;2022-10-31T03:22:28;1.10;;;0.53;;
71600;SDS011;59446;52.192;4.628;2022-10-31T03:24:56;1.42;;;0.60;;
71600;SDS011;59446;52.192;4.628;2022-10-31T03:27:24;1.58;;;0.70;;
71600;SDS011;59446;52.192;4.628;2022-10-31T03:29:52;2.43;;;0.63;;
71600;SDS011;59446;52.192;4.628;2022-10-31T03:32:23;0.73;;;0.63;;
71600;SDS011;59446;52.192;4.628;2022-10-31T03:35:10;1.85;;;0.60;;
71600;SDS011;59446;52.192;4.628;2022-10-31T03:37:39;0.95;;;0.60;;
71600;SDS011;59446;52.192;4.628;2022-10-31T03:40:06;1.60;;;0.60;;
71600;SDS011;59446;52.192;4.628;2022-10-31T03:42:34;1.02;;;0.60;;
71600;SDS011;59446;52.192;4.628;2022-10-31T03:45:05;1.65;;;0.60;;
71600;SDS011;59446;52.192;4.628;2022-10-31T03:47:35;1.13;;;0.57;;
71600;SDS011;59446;52.192;4.628;2022-10-31T03:50:03;0.93;;;0.50;;
71600;SDS011;59446;52.192;4.628;2022-10-31T03:52:46;1.15;;;0.50;;
71600;SDS011;59446;52.192;4.628;2022-10-31T03:55:20;0.70;;;0.50;;
71600;SDS011;59446;52.192;4.628;2022-10-31T03:58:02;1.17;;;0.60;;
71600;SDS011;59446;52.192;4.628;2022-10-31T04:00:32;1.30;;;0.73;;
71600;SDS011;59446;52.192;4.628;2022-10-31T04:03:05;1.10;;;0.50;;
71600;SDS011;59446;52.192;4.628;2022-10-31T04:05:35;1.83;;;0.70;;
71600;SDS011;59446;52.192;4.628;2022-10-31T04:08:04;1.60;;;0.70;;
71600;SDS011;59446;52.192;4.628;2022-10-31T04:10:34;0.60;;;0.50;;
71600;SDS011;59446;52.192;4.628;2022-10-31T04:13:10;0.87;;;0.50;;
71600;SDS011;59446;52.192;4.628;2022-10-31T04:15:39;1.08;;;0.60;;
71600;SDS011;59446;52.192;4.628;2022-10-31T04:18:06;1.02;;;0.65;;
71600;SDS011;59446;52.192;4.628;2022-10-31T04:20:36;1.57;;;0.60;;
71600;SDS011;59446;52.192;4.628;2022-10-31T04:23:03;1.20;;;0.65;;
71600;SDS011;59446;52.192;4.628;2022-10-31T04:25:29;0.50;;;0.45;;
71600;SDS011;59446;52.192;4.628;2022-10-31T04:27:54;0.80;;;0.50;;
71600;SDS011;59446;52.192;4.628;2022-10-31T04:30:20;1.30;;;0.70;;
71600;SDS011;59446;52.192;4.628;2022-10-31T04:32:46;0.80;;;0.60;;
71600;SDS011;59446;52.192;4.628;2022-10-31T04:35:11;1.10;;;0.70;;
71600;SDS011;59446;52.192;4.628;2022-10-31T04:37:36;0.70;;;0.53;;
71600;SDS011;59446;52.192;4.628;2022-10-31T04:40:02;0.70;;;0.60;;
71600;SDS011;59446;52.192;4.628;2022-10-31T04:42:29;0.98;;;0.50;;
71600;SDS011;59446;52.192;4.628;2022-10-31T04:44:55;0.60;;;0.60;;
71600;SDS011;59446;52.192;4.628;2022-10-31T04:47:20;0.93;;;0.70;;
71600;SDS011;59446;52.192;4.628;2022-10-31T04:49:45;0.87;;;0.60;;
71600;SDS011;59446;52.192;4.628;2022-10-31T04:52:11;1.40;;;0.80;;
71600;SDS011;59446;52.192;4.628;2022-10-31T04:54:36;1.40;;;0.70;;
71600;SDS011;59446;52.192;4.628;2022-10-31T04:57:01;1.35;;;0.80;;
71600;SDS011;59446;52.192;4.628;2022-10-31T04:59:27;1.30;;;0.80;;
71600;SDS011;59446;52.192;4.628;2022-10-31T05:01:52;0.93;;;0.60;;
71600;SDS011;59446;52.192;4.628;2022-10-31T05:04:17;1.30;;;0.50;;
71600;SDS011;59446;52.192;4.628;2022-10-31T05:06:43;1.73;;;0.60;;
71600;SDS011;59446;52.192;4.628;2022-10-31T05:09:08;2.13;;;0.70;;
71600;SDS011;59446;52.192;4.628;2022-10-31T05:11:33;1.00;;;0.57;;
71600;SDS011;59446;52.192;4.628;2022-10-31T05:13:59;1.20;;;0.60;;
71600;SDS011;59446;52.192;4.628;2022-10-31T05:16:24;0.82;;;0.50;;
71600;SDS011;59446;52.192;4.628;2022-10-31T05:18:49;0.90;;;0.50;;
71600;SDS011;59446;52.192;4.628;2022-10-31T05:21:15;0.90;;;0.50;;
71600;SDS011;59446;52.192;4.628;2022-10-31T05:23:40;1.40;;;0.80;;
71600;SDS011;59446;52.192;4.628;2022-10-31T05:26:05;1.13;;;0.57;;
71600;SDS011;59446;52.192;4.628;2022-10-31T05:28:31;0.90;;;0.50;;
71600;SDS011;59446;52.192;4.628;2022-10-31T05:30:56;0.63;;;0.50;;
71600;SDS011;59446;52.192;4.628;2022-10-31T05:33:21;2.00;;;0.80;;
71600;SDS011;59446;52.192;4.628;2022-10-31T05:35:47;0.85;;;0.43;;
71600;SDS011;59446;52.192;4.628;2022-10-31T05:38:12;1.13;;;0.80;;
71600;SDS011;59446;52.192;4.628;2022-10-31T05:40:38;0.90;;;0.50;;
71600;SDS011;59446;52.192;4.628;2022-10-31T05:43:03;1.03;;;0.60;;
71600;SDS011;59446;52.192;4.628;2022-10-31T05:45:29;0.60;;;0.50;;
71600;SDS011;59446;52.192;4.628;2022-10-31T05:47:55;0.70;;;0.53;;
71600;SDS011;59446;52.192;4.628;2022-10-31T05:50:22;1.50;;;0.60;;
71600;SDS011;59446;52.192;4.628;2022-10-31T05:52:53;1.27;;;0.70;;
71600;SDS011;59446;52.192;4.628;2022-10-31T05:55:31;1.20;;;0.60;;
71600;SDS011;59446;52.192;4.628;2022-10-31T05:57:57;1.52;;;0.50;;
71600;SDS011;59446;52.192;4.628;2022-10-31T06:00:23;0.77;;;0.50;;
71600;SDS011;59446;52.192;4.628;2022-10-31T06:02:49;1.83;;;0.70;;
71600;SDS011;59446;52.192;4.628;2022-10-31T06:05:22;1.70;;;0.50;;
71600;SDS011;59446;52.192;4.628;2022-10-31T06:07:47;0.57;;;0.57;;
71600;SDS011;59446;52.192;4.628;2022-10-31T06:10:12;2.10;;;0.80;;
71600;SDS011;59446;52.192;4.628;2022-10-31T06:12:38;1.10;;;0.60;;
71600;SDS011;59446;52.192;4.628;2022-10-31T06:15:05;0.93;;;0.60;;
71600;SDS011;59446;52.192;4.628;2022-10-31T06:17:32;1.40;;;0.60;;
71600;SDS011;59446;52.192;4.628;2022-10-31T06:19:58;0.88;;;0.50;;
71600;SDS011;59446;52.192;4.628;2022-10-31T06:22:24;1.17;;;0.50;;
71600;SDS011;59446;52.192;4.628;2022-10-31T06:24:49;0.60;;;0.43;;
71600;SDS011;59446;52.192;4.628;2022-10-31T06:27:14;0.70;;;0.57;;
71600;SDS011;59446;52.192;4.628;2022-10-31T06:29:40;0.90;;;0.60;;
71600;SDS011;59446;52.192;4.628;2022-10-31T06:32:05;1.13;;;0.67;;
71600;SDS011;59446;52.192;4.628;2022-10-31T06:34:30;0.93;;;0.50;;
71600;SDS011;59446;52.192;4.628;2022-10-31T06:36:56;0.90;;;0.60;;
71600;SDS011;59446;52.192;4.628;2022-10-31T06:39:21;0.93;;;0.50;;
71600;SDS011;59446;52.192;4.628;2022-10-31T06:41:47;1.30;;;0.80;;
71600;SDS011;59446;52.192;4.628;2022-10-31T06:44:13;1.15;;;0.70;;
71600;SDS011;59446;52.192;4.628;2022-10-31T06:46:38;1.43;;;0.60;;
71600;SDS011;59446;52.192;4.628;2022-10-31T06:49:04;2.50;;;0.80;;
71600;SDS011;59446;52.192;4.628;2022-10-31T06:51:29;1.73;;;0.70;;
71600;SDS011;59446;52.192;4.628;2022-10-31T06:53:54;1.98;;;0.88;;
71600;SDS011;59446;52.192;4.628;2022-10-31T06:56:20;1.67;;;0.63;;
71600;SDS011;59446;52.192;4.628;2022-10-31T06:58:45;2.90;;;1.00;;
71600;SDS011;59446;52.192;4.628;2022-10-31T07:01:10;1.43;;;0.80;;
71600;SDS011;59446;52.192;4.628;2022-10-31T07:03:36;1.43;;;0.93;;
71600;SDS011;59446;52.192;4.628;2022-10-31T07:06:01;1.63;;;0.80;;
71600;SDS011;59446;52.192;4.628;2022-10-31T07:08:27;2.78;;;1.00;;
71600;SDS011;59446;52.192;4.628;2022-10-31T07:10:53;2.33;;;0.90;;
71600;SDS011;59446;52.192;4.628;2022-10-31T07:13:19;1.45;;;0.85;;
71600;SDS011;59446;52.192;4.628;2022-10-31T07:15:51;2.20;;;1.07;;
71600;SDS011;59446;52.192;4.628;2022-10-31T07:18:24;2.20;;;0.90;;
71600;SDS011;59446;52.192;4.628;2022-10-31T07:20:49;1.80;;;0.90;;
71600;SDS011;59446;52.192;4.628;2022-10-31T07:23:16;3.28;;;1.08;;
71600;SDS011;59446;52.192;4.628;2022-10-31T07:25:42;1.57;;;0.90;;
71600;SDS011;59446;52.192;4.628;2022-10-31T07:28:07;2.57;;;1.13;;
71600;SDS011;59446;52.192;4.628;2022-10-31T07:30:33;2.25;;;1.00;;
71600;SDS011;59446;52.192;4.628;2022-10-31T07:32:59;2.13;;;0.80;;
71600;SDS011;59446;52.192;4.628;2022-10-31T07:35:26;1.65;;;0.90;;
71600;SDS011;59446;52.192;4.628;2022-10-31T07:37:52;3.27;;;1.10;;
71600;SDS011;59446;52.192;4.628;2022-10-31T07:40:18;2.28;;;0.90;;
71600;SDS011;59446;52.192;4.628;2022-10-31T07:42:48;2.92;;;1.25;;
71600;SDS011;59446;52.192;4.628;2022-10-31T07:45:16;2.47;;;1.07;;
71600;SDS011;59446;52.192;4.628;2022-10-31T07:47:46;3.10;;;0.90;;
71600;SDS011;59446;52.192;4.628;2022-10-31T07:50:14;2.90;;;1.20;;
71600;SDS011;59446;52.192;4.628;2022-10-31T07:52:41;2.33;;;1.10;;
71600;SDS011;59446;52.192;4.628;2022-10-31T07:55:06;3.33;;;1.40;;
71600;SDS011;59446;52.192;4.628;2022-10-31T07:57:32;3.03;;;1.30;;
71600;SDS011;59446;52.192;4.628;2022-10-31T07:59:58;5.10;;;1.40;;
71600;SDS011;59446;52.192;4.628;2022-10-31T08:02:23;2.83;;;1.00;;
71600;SDS011;59446;52.192;4.628;2022-10-31T08:04:49;2.60;;;1.30;;
71600;SDS011;59446;52.192;4.628;2022-10-31T08:07:14;2.40;;;1.10;;
71600;SDS011;59446;52.192;4.628;2022-10-31T08:09:40;3.17;;;1.17;;
71600;SDS011;59446;52.192;4.628;2022-10-31T08:12:05;2.47;;;1.10;;
71600;SDS011;59446;52.192;4.628;2022-10-31T08:14:31;2.70;;;0.90;;
71600;SDS011;59446;52.192;4.628;2022-10-31T08:16:56;2.03;;;1.00;;
71600;SDS011;59446;52.192;4.628;2022-10-31T08:19:21;2.23;;;0.97;;
71600;SDS011;59446;52.192;4.628;2022-10-31T08:21:49;2.33;;;1.13;;
71600;SDS011;59446;52.192;4.628;2022-10-31T08:24:16;2.13;;;1.00;;
71600;SDS011;59446;52.192;4.628;2022-10-31T08:26:41;2.37;;;1.10;;
71600;SDS011;59446;52.192;4.628;2022-10-31T08:29:06;2.87;;;1.30;;
71600;SDS011;59446;52.192;4.628;2022-10-31T08:31:32;2.10;;;0.80;;
71600;SDS011;59446;52.192;4.628;2022-10-31T08:33:57;3.07;;;1.33;;
71600;SDS011;59446;52.192;4.628;2022-10-31T08:36:23;2.30;;;1.05;;
71600;SDS011;59446;52.192;4.628;2022-10-31T08:38:48;2.23;;;1.00;;
71600;SDS011;59446;52.192;4.628;2022-10-31T08:41:14;2.43;;;1.00;;
71600;SDS011;59446;52.192;4.628;2022-10-31T08:43:39;2.05;;;1.05;;
71600;SDS011;59446;52.192;4.628;2022-10-31T08:46:05;1.70;;;0.90;;
71600;SDS011;59446;52.192;4.628;2022-10-31T08:48:31;1.75;;;1.33;;
71600;SDS011;59446;52.192;4.628;2022-10-31T08:50:57;2.33;;;1.10;;
71600;SDS011;59446;52.192;4.628;2022-10-31T08:53:24;2.92;;;1.02;;
71600;SDS011;59446;52.192;4.628;2022-10-31T08:55:50;2.83;;;0.95;;
71600;SDS011;59446;52.192;4.628;2022-10-31T08:58:16;1.70;;;0.90;;
71600;SDS011;59446;52.192;4.628;2022-10-31T09:00:43;2.75;;;1.20;;
71600;SDS011;59446;52.192;4.628;2022-10-31T09:03:11;2.17;;;1.17;;
71600;SDS011;59446;52.192;4.628;2022-10-31T09:05:38;1.63;;;0.93;;
71600;SDS011;59446;52.192;4.628;2022-10-31T09:08:04;1.98;;;0.90;;
71600;SDS011;59446;52.192;4.628;2022-10-31T09:10:31;2.10;;;1.00;;
71600;SDS011;59446;52.192;4.628;2022-10-31T09:12:58;2.92;;;1.10;;
71600;SDS011;59446;52.192;4.628;2022-10-31T09:15:26;1.80;;;0.80;;
71600;SDS011;59446;52.192;4.628;2022-10-31T09:17:52;2.93;;;1.10;;
71600;SDS011;59446;52.192;4.628;2022-10-31T09:20:18;1.23;;;0.73;;
71600;SDS011;59446;52.192;4.628;2022-10-31T09:22:43;2.10;;;1.10;;
71600;SDS011;59446;52.192;4.628;2022-10-31T09:25:09;1.80;;;0.90;;
71600;SDS011;59446;52.192;4.628;2022-10-31T09:27:35;1.75;;;0.88;;
71600;SDS011;59446;52.192;4.628;2022-10-31T09:30:00;2.73;;;0.87;;
71600;SDS011;59446;52.192;4.628;2022-10-31T09:32:26;2.27;;;0.90;;
71600;SDS011;59446;52.192;4.628;2022-10-31T09:34:51;2.47;;;0.90;;
71600;SDS011;59446;52.192;4.628;2022-10-31T09:37:16;2.67;;;0.93;;
71600;SDS011;59446;52.192;4.628;2022-10-31T09:39:42;1.83;;;0.97;;
71600;SDS011;59446;52.192;4.628;2022-10-31T09:50:14;3.03;;;1.20;;
71600;SDS011;59446;52.192;4.628;2022-10-31T09:52:53;2.00;;;0.95;;
71600;SDS011;59446;52.192;4.628;2022-10-31T09:55:35;1.70;;;0.87;;
71600;SDS011;59446;52.192;4.628;2022-10-31T09:58:08;3.15;;;1.10;;
71600;SDS011;59446;52.192;4.628;2022-10-31T10:00:40;2.22;;;0.95;;
71600;SDS011;59446;52.192;4.628;2022-10-31T10:03:22;2.50;;;1.00;;
71600;SDS011;59446;52.192;4.628;2022-10-31T10:08:48;2.60;;;1.17;;
71600;SDS011;59446;52.192;4.628;2022-10-31T10:11:21;4.10;;;1.30;;
71600;SDS011;59446;52.192;4.628;2022-10-31T10:16:51;2.92;;;1.20;;
71600;SDS011;59446;52.192;4.628;2022-10-31T10:30:48;2.57;;;1.10;;
71600;SDS011;59446;52.192;4.628;2022-10-31T10:33:23;4.15;;;1.33;;
71600;SDS011;59446;52.192;4.628;2022-10-31T10:36:49;4.32;;;1.50;;
71600;SDS011;59446;52.192;4.628;2022-10-31T10:39:00;2.90;;;1.10;;
71600;SDS011;59446;52.192;4.628;2022-10-31T10:41:33;2.90;;;1.37;;
71600;SDS011;59446;52.192;4.628;2022-10-31T10:43:58;2.58;;;1.02;;
71600;SDS011;59446;52.192;4.628;2022-10-31T10:49:38;2.80;;;1.02;;
71600;SDS011;59446;52.192;4.628;2022-10-31T10:57:44;3.97;;;1.10;;
71600;SDS011;59446;52.192;4.628;2022-10-31T11:00:19;2.43;;;1.10;;
71600;SDS011;59446;52.192;4.628;2022-10-31T11:02:47;2.83;;;0.98;;
71600;SDS011;59446;52.192;4.628;2022-10-31T11:05:58;3.42;;;1.20;;
71600;SDS011;59446;52.192;4.628;2022-10-31T11:08:01;2.67;;;1.33;;
71600;SDS011;59446;52.192;4.628;2022-10-31T11:10:27;4.87;;;1.50;;
71600;SDS011;59446;52.192;4.628;2022-10-31T11:13:04;2.30;;;1.00;;
71600;SDS011;59446;52.192;4.628;2022-10-31T11:15:50;2.87;;;1.30;;
71600;SDS011;59446;52.192;4.628;2022-10-31T11:18:22;5.00;;;1.60;;
71600;SDS011;59446;52.192;4.628;2022-10-31T11:20:51;2.88;;;1.17;;
71600;SDS011;59446;52.192;4.628;2022-10-31T11:23:20;3.83;;;1.17;;
71600;SDS011;59446;52.192;4.628;2022-10-31T11:25:48;4.55;;;1.23;;
71600;SDS011;59446;52.192;4.628;2022-10-31T11:28:30;2.10;;;1.08;;
71600;SDS011;59446;52.192;4.628;2022-10-31T11:31:01;2.93;;;1.33;;
71600;SDS011;59446;52.192;4.628;2022-10-31T11:33:36;2.22;;;1.02;;
71600;SDS011;59446;52.192;4.628;2022-10-31T11:36:37;3.58;;;1.10;;
71600;SDS011;59446;52.192;4.628;2022-10-31T11:39:02;1.73;;;0.90;;
71600;SDS011;59446;52.192;4.628;2022-10-31T11:41:33;3.07;;;1.17;;
71600;SDS011;59446;52.192;4.628;2022-10-31T11:44:04;3.20;;;1.20;;
71600;SDS011;59446;52.192;4.628;2022-10-31T11:46:38;2.53;;;1.08;;
71600;SDS011;59446;52.192;4.628;2022-10-31T11:49:06;3.00;;;1.10;;
71600;SDS011;59446;52.192;4.628;2022-10-31T11:51:47;5.32;;;1.05;;
71600;SDS011;59446;52.192;4.628;2022-10-31T11:54:20;4.05;;;1.23;;
71600;SDS011;59446;52.192;4.628;2022-10-31T11:56:49;3.07;;;1.40;;
71600;SDS011;59446;52.192;4.628;2022-10-31T11:59:17;3.47;;;1.20;;
71600;SDS011;59446;52.192;4.628;2022-10-31T12:01:48;2.30;;;1.10;;
71600;SDS011;59446;52.192;4.628;2022-10-31T12:04:15;2.97;;;1.13;;
71600;SDS011;59446;52.192;4.628;2022-10-31T12:06:42;3.30;;;1.20;;
71600;SDS011;59446;52.192;4.628;2022-10-31T12:09:32;4.80;;;1.52;;
71600;SDS011;59446;52.192;4.628;2022-10-31T12:14:55;3.60;;;1.50;;
71600;SDS011;59446;52.192;4.628;2022-10-31T12:18:17;3.30;;;1.33;;
71600;SDS011;59446;52.192;4.628;2022-10-31T12:37:08;3.80;;;1.40;;
71600;SDS011;59446;52.192;4.628;2022-10-31T12:45:53;2.85;;;1.30;;
71600;SDS011;59446;52.192;4.628;2022-10-31T13:00:00;3.35;;;1.50;;
71600;SDS011;59446;52.192;4.628;2022-10-31T13:02:31;2.80;;;1.30;;
71600;SDS011;59446;52.192;4.628;2022-10-31T13:07:57;2.83;;;1.10;;
71600;SDS011;59446;52.192;4.628;2022-10-31T13:10:31;2.97;;;1.23;;
71600;SDS011;59446;52.192;4.628;2022-10-31T13:16:13;2.67;;;1.10;;
71600;SDS011;59446;52.192;4.628;2022-10-31T13:18:48;2.70;;;1.20;;
71600;SDS011;59446;52.192;4.628;2022-10-31T13:24:41;4.47;;;1.33;;
71600;SDS011;59446;52.192;4.628;2022-10-31T13:27:23;3.70;;;1.23;;
71600;SDS011;59446;52.192;4.628;2022-10-31T13:30:05;4.53;;;1.55;;
71600;SDS011;59446;52.192;4.628;2022-10-31T13:46:24;3.70;;;1.25;;
71600;SDS011;59446;52.192;4.628;2022-10-31T13:49:36;3.50;;;1.52;;
71600;SDS011;59446;52.192;4.628;2022-10-31T13:54:39;3.95;;;1.58;;
71600;SDS011;59446;52.192;4.628;2022-10-31T14:02:45;3.70;;;1.70;;
71600;SDS011;59446;52.192;4.628;2022-10-31T14:05:33;6.75;;;1.92;;
71600;SDS011;59446;52.192;4.628;2022-10-31T14:08:01;6.05;;;1.60;;
71600;SDS011;59446;52.192;4.628;2022-10-31T14:10:32;3.47;;;1.50;;
71600;SDS011;59446;52.192;4.628;2022-10-31T14:15:29;4.18;;;1.73;;
71600;SDS011;59446;52.192;4.628;2022-10-31T14:17:55;6.37;;;2.03;;
71600;SDS011;59446;52.192;4.628;2022-10-31T14:20:32;7.28;;;2.55;;
71600;SDS011;59446;52.192;4.628;2022-10-31T14:26:05;5.40;;;2.23;;
71600;SDS011;59446;52.192;4.628;2022-10-31T14:28:51;6.35;;;2.35;;
71600;SDS011;59446;52.192;4.628;2022-10-31T14:31:38;6.60;;;2.33;;
71600;SDS011;59446;52.192;4.628;2022-10-31T14:40:07;7.93;;;2.65;;
71600;SDS011;59446;52.192;4.628;2022-10-31T14:51:16;37.78;;;13.05;;
71600;SDS011;59446;52.192;4.628;2022-10-31T14:56:24;21.23;;;7.43;;
71600;SDS011;59446;52.192;4.628;2022-10-31T14:58:52;21.65;;;6.53;;
71600;SDS011;59446;52.192;4.628;2022-10-31T15:03:58;30.50;;;8.48;;
71600;SDS011;59446;52.192;4.628;2022-10-31T15:06:30;26.00;;;7.28;;
71600;SDS011;59446;52.192;4.628;2022-10-31T15:09:20;26.23;;;7.37;;
71600;SDS011;59446;52.192;4.628;2022-10-31T15:11:55;18.30;;;5.95;;
71600;SDS011;59446;52.192;4.628;2022-10-31T15:14:25;16.20;;;5.83;;
71600;SDS011;59446;52.192;4.628;2022-10-31T15:16:58;21.90;;;6.57;;
71600;SDS011;59446;52.192;4.628;2022-10-31T15:19:27;15.57;;;4.53;;
71600;SDS011;59446;52.192;4.628;2022-10-31T15:21:55;16.57;;;6.27;;
71600;SDS011;59446;52.192;4.628;2022-10-31T15:24:23;15.27;;;5.60;;
71600;SDS011;59446;52.192;4.628;2022-10-31T15:26:53;15.65;;;5.32;;
71600;SDS011;59446;52.192;4.628;2022-10-31T15:29:21;16.25;;;6.05;;
71600;SDS011;59446;52.192;4.628;2022-10-31T15:31:55;15.60;;;4.77;;
71600;SDS011;59446;52.192;4.628;2022-10-31T15:34:26;15.88;;;4.93;;
71600;SDS011;59446;52.192;4.628;2022-10-31T15:37:04;13.52;;;5.07;;
71600;SDS011;59446;52.192;4.628;2022-10-31T15:39:34;14.57;;;5.20;;
71600;SDS011;59446;52.192;4.628;2022-10-31T15:41:59;13.00;;;4.50;;
71600;SDS011;59446;52.192;4.628;2022-10-31T15:44:29;15.03;;;4.47;;
71600;SDS011;59446;52.192;4.628;2022-10-31T15:46:59;14.30;;;4.35;;
71600;SDS011;59446;52.192;4.628;2022-10-31T15:49:34;14.82;;;4.60;;
71600;SDS011;59446;52.192;4.628;2022-10-31T15:52:45;13.33;;;4.53;;
71600;SDS011;59446;52.192;4.628;2022-10-31T15:54:57;11.02;;;3.78;;
71600;SDS011;59446;52.192;4.628;2022-10-31T15:57:26;16.00;;;4.60;;
71600;SDS011;59446;52.192;4.628;2022-10-31T15:59:52;12.73;;;4.00;;
71600;SDS011;59446;52.192;4.628;2022-10-31T16:02:22;13.20;;;3.97;;
71600;SDS011;59446;52.192;4.628;2022-10-31T16:05:33;12.00;;;4.30;;
71600;SDS011;59446;52.192;4.628;2022-10-31T16:07:51;11.73;;;3.17;;
71600;SDS011;59446;52.192;4.628;2022-10-31T16:10:24;9.23;;;2.80;;
71600;SDS011;59446;52.192;4.628;2022-10-31T16:12:51;10.23;;;3.40;;
71600;SDS011;59446;52.192;4.628;2022-10-31T16:15:17;12.27;;;3.33;;
71600;SDS011;59446;52.192;4.628;2022-10-31T16:17:46;8.93;;;3.17;;
71600;SDS011;59446;52.192;4.628;2022-10-31T16:20:25;7.97;;;3.72;;
71600;SDS011;59446;52.192;4.628;2022-10-31T16:22:52;9.40;;;3.55;;
71600;SDS011;59446;52.192;4.628;2022-10-31T16:25:24;10.33;;;3.53;;
71600;SDS011;59446;52.192;4.628;2022-10-31T16:27:51;9.63;;;3.17;;
71600;SDS011;59446;52.192;4.628;2022-10-31T16:30:35;9.95;;;3.38;;
71600;SDS011;59446;52.192;4.628;2022-10-31T16:35:48;8.90;;;2.77;;
71600;SDS011;59446;52.192;4.628;2022-10-31T16:38:14;10.93;;;3.33;;
71600;SDS011;59446;52.192;4.628;2022-10-31T16:40:39;7.43;;;3.13;;
71600;SDS011;59446;52.192;4.628;2022-10-31T16:43:09;10.68;;;3.03;;
71600;SDS011;59446;52.192;4.628;2022-10-31T16:45:37;10.65;;;3.45;;
71600;SDS011;59446;52.192;4.628;2022-10-31T16:48:10;9.37;;;3.20;;
71600;SDS011;59446;52.192;4.628;2022-10-31T16:50:39;6.47;;;2.63;;
71600;SDS011;59446;52.192;4.628;2022-10-31T16:53:05;8.75;;;2.95;;
71600;SDS011;59446;52.192;4.628;2022-10-31T16:55:31;8.90;;;3.17;;
71600;SDS011;59446;52.192;4.628;2022-10-31T16:58:00;7.88;;;2.83;;
71600;SDS011;59446;52.192;4.628;2022-10-31T17:00:26;6.70;;;2.77;;
71600;SDS011;59446;52.192;4.628;2022-10-31T17:02:53;9.35;;;3.38;;
71600;SDS011;59446;52.192;4.628;2022-10-31T17:05:21;7.90;;;2.78;;
71600;SDS011;59446;52.192;4.628;2022-10-31T17:07:53;8.93;;;3.35;;
71600;SDS011;59446;52.192;4.628;2022-10-31T17:10:19;6.47;;;2.77;;
71600;SDS011;59446;52.192;4.628;2022-10-31T17:12:45;8.53;;;2.80;;
71600;SDS011;59446;52.192;4.628;2022-10-31T17:15:23;6.50;;;2.50;;
71600;SDS011;59446;52.192;4.628;2022-10-31T17:17:50;8.23;;;3.10;;
71600;SDS011;59446;52.192;4.628;2022-10-31T17:20:17;8.83;;;2.87;;
71600;SDS011;59446;52.192;4.628;2022-10-31T17:22:50;7.70;;;2.72;;
71600;SDS011;59446;52.192;4.628;2022-10-31T17:25:17;6.78;;;2.92;;
71600;SDS011;59446;52.192;4.628;2022-10-31T17:27:49;13.20;;;3.37;;
71600;SDS011;59446;52.192;4.628;2022-10-31T17:30:14;13.98;;;3.17;;
71600;SDS011;59446;52.192;4.628;2022-10-31T17:32:42;6.85;;;2.75;;
71600;SDS011;59446;52.192;4.628;2022-10-31T17:35:09;8.47;;;2.87;;
71600;SDS011;59446;52.192;4.628;2022-10-31T17:37:35;9.55;;;2.90;;